Time;durP1;ratioP1;P1;durP2;ratioP2;P2;SDS_P1;SDS_P2;PMS_P1;PMS_P2;Temp;Humidity;BMP_temperature;BMP_pressure;BME280_temperature;BME280_humidity;BME280_pressure;Samples;Min_cycle;Max_cycle;Signal;HPM_P1;HPM_P2
2024/03/22 00:01:57;;;;;;;43.30;20.80;;;;;;;-147.86;100.00;15210.05;105878;1253;61306;-44
2024/03/22 00:04:24;;;;;;;46.30;20.70;;;;;;;-147.86;100.00;15641.65;105921;1253;74653;-46
2024/03/22 00:06:51;;;;;;;39.40;18.80;;;;;;;-147.86;100.00;16008.28;105903;1254;65340;-46
2024/03/22 00:09:18;;;;;;;42.20;21.10;;;;;;;-147.86;100.00;16203.91;105953;1254;72472;-47
2024/03/22 00:11:45;;;;;;;44.60;20.30;;;;;;;-147.86;100.00;16488.54;105866;1253;61148;-44
2024/03/22 00:14:12;;;;;;;44.30;20.80;;;;;;;-147.86;100.00;16572.58;105923;1254;61320;-45
2024/03/22 00:16:39;;;;;;;49.60;20.90;;;;;;;-147.86;100.00;16753.01;105928;1254;74435;-45
2024/03/22 00:19:06;;;;;;;43.20;21.20;;;;;;;-147.86;100.00;16785.30;105928;1254;65186;-45
2024/03/22 00:21:33;;;;;;;41.30;21.40;;;;;;;-147.86;100.00;16845.56;105895;1254;72939;-45
2024/03/22 00:24:01;;;;;;;42.30;21.20;;;;;;;-147.86;100.00;16806.72;105923;1256;61357;-47
2024/03/22 00:26:28;;;;;;;39.90;19.90;;;;;;;-147.86;100.00;16896.16;105942;1254;61286;-45
2024/03/22 00:28:57;;;;;;;46.10;21.80;;;;;;;-147.86;100.00;16914.41;105884;1254;74429;-45
2024/03/22 00:31:25;;;;;;;47.60;22.70;;;;;;;-147.86;100.00;16644.23;105918;1254;65258;-44
2024/03/22 00:33:52;;;;;;;53.70;21.20;;;;;;;-147.86;100.00;16834.30;105916;1256;72621;-44
2024/03/22 00:36:18;;;;;;;45.20;20.50;;;;;;;-147.86;100.00;17063.02;105891;1256;61298;-46
2024/03/22 00:38:46;;;;;;;41.90;20.70;;;;;;;-147.86;100.00;17529.81;105951;1254;61337;-44
2024/03/22 00:41:13;;;;;;;44.40;22.30;;;;;;;-147.86;100.00;17827.08;105866;1254;74668;-45
2024/03/22 00:43:40;;;;;;;48.90;22.80;;;;;;;-147.86;100.00;18327.35;105946;1256;65338;-45
2024/03/22 00:46:07;;;;;;;55.30;23.90;;;;;;;-147.86;100.00;18670.16;105961;1256;72471;-46
2024/03/22 00:48:37;;;;;;;48.50;22.30;;;;;;;-147.86;100.00;18960.88;105864;1253;61330;-47
2024/03/22 00:51:04;;;;;;;47.40;21.40;;;;;;;-147.86;100.00;19112.78;105945;1254;61206;-47
2024/03/22 00:53:31;;;;;;;43.00;21.10;;;;;;;-147.86;100.00;19655.96;105932;1252;74590;-44
2024/03/22 00:55:59;;;;;;;54.70;23.10;;;;;;;-147.86;100.00;19917.48;105909;1253;65655;-44
2024/03/22 00:58:27;;;;;;;51.40;22.80;;;;;;;-147.86;100.00;19887.96;105904;1254;72693;-45
2024/03/22 01:00:54;;;;;;;53.10;23.60;;;;;;;-147.86;100.00;19909.77;105881;1257;61144;-44
2024/03/22 01:03:21;;;;;;;52.90;23.60;;;;;;;-147.86;100.00;20089.57;105916;1253;61349;-45
2024/03/22 01:05:48;;;;;;;51.30;22.50;;;;;;;-147.86;100.00;20293.15;105904;1252;74692;-44
2024/03/22 01:08:15;;;;;;;54.20;22.60;;;;;;;-147.86;100.00;20423.16;105914;1256;65393;-44
2024/03/22 01:10:42;;;;;;;56.90;23.50;;;;;;;-147.86;100.00;20558.64;105918;1254;72964;-44
2024/03/22 01:13:09;;;;;;;53.80;24.10;;;;;;;-147.86;100.00;20684.38;105902;1256;61232;-44
2024/03/22 01:15:35;;;;;;;55.00;25.60;;;;;;;-147.86;100.00;20855.31;105897;1252;61342;-45
2024/03/22 01:18:03;;;;;;;54.40;24.70;;;;;;;-147.86;100.00;21024.29;105891;1257;75158;-45
2024/03/22 01:20:30;;;;;;;64.00;23.90;;;;;;;-147.86;100.00;21106.08;105971;1256;65239;-47
2024/03/22 01:22:59;;;;;;;49.50;22.40;;;;;;;-147.86;100.00;21368.12;105918;1253;72465;-46
2024/03/22 01:25:27;;;;;;;63.00;23.30;;;;;;;-147.86;100.00;21370.64;105683;1252;61291;-44
2024/03/22 01:27:55;;;;;;;60.10;24.20;;;;;;;-147.86;100.00;21861.21;105973;1254;61257;-45
2024/03/22 01:30:22;;;;;;;55.90;21.90;;;;;;;-147.86;100.00;22190.68;105898;1257;75210;-47
2024/03/22 01:32:50;;;;;;;51.50;22.90;;;;;;;-147.86;100.00;22365.98;105917;1253;64720;-45
2024/03/22 01:35:17;;;;;;;57.40;23.20;;;;;;;-147.86;100.00;22850.08;105949;1256;72663;-45
2024/03/22 01:37:44;;;;;;;50.10;21.80;;;;;;;-147.86;100.00;23141.06;105942;1253;61214;-45
2024/03/22 01:40:13;;;;;;;54.30;22.00;;;;;;;-147.86;100.00;23247.43;105926;1254;61340;-44
2024/03/22 01:42:41;;;;;;;50.70;23.10;;;;;;;-147.86;100.00;23176.25;105672;1254;74415;-45
2024/03/22 01:45:08;;;;;;;50.50;23.70;;;;;;;-147.86;100.00;23435.97;105927;1254;65356;-45
2024/03/22 01:47:35;;;;;;;49.30;22.00;;;;;;;-147.86;100.00;23396.63;105956;1252;72502;-47
2024/03/22 01:50:02;;;;;;;54.80;21.70;;;;;;;-147.86;100.00;23352.59;105684;1259;61177;-44
2024/03/22 01:52:29;;;;;;;52.60;22.90;;;;;;;-147.86;100.00;23232.63;105706;1253;61284;-44
2024/03/22 01:54:56;;;;;;;58.00;25.10;;;;;;;-147.86;100.00;23249.76;105904;1252;74665;-45
2024/03/22 01:57:23;;;;;;;58.70;23.70;;;;;;;-147.86;100.00;23292.61;105773;1254;65461;-45
2024/03/22 01:59:50;;;;;;;56.40;23.90;;;;;;;-147.86;100.00;23290.29;105940;1252;72586;-45
2024/03/22 02:02:17;;;;;;;55.60;23.70;;;;;;;-147.86;100.00;23350.66;105733;1258;61215;-46
2024/03/22 02:04:43;;;;;;;49.20;21.90;;;;;;;-147.86;100.00;23398.60;105983;1254;61259;-44
2024/03/22 02:07:10;;;;;;;52.80;23.50;;;;;;;-147.86;100.00;23473.39;105898;1254;74706;-45
2024/03/22 02:09:37;;;;;;;58.30;25.60;;;;;;;-147.86;100.00;23529.10;105926;1254;65205;-45
2024/03/22 02:12:04;;;;;;;62.00;25.40;;;;;;;-147.86;100.00;23565.35;105941;1256;72635;-45
2024/03/22 02:14:31;;;;;;;55.30;25.80;;;;;;;-147.86;100.00;23591.48;105883;1256;61212;-44
2024/03/22 02:16:58;;;;;;;50.40;23.70;;;;;;;-147.86;100.00;23696.64;105946;1254;61262;-45
2024/03/22 02:19:25;;;;;;;52.50;22.80;;;;;;;-147.86;100.00;23735.61;105858;1256;73496;-45
2024/03/22 02:21:52;;;;;;;51.20;23.00;;;;;;;-147.86;100.00;23795.62;105906;1256;65380;-46
2024/03/22 02:24:18;;;;;;;50.80;23.40;;;;;;;-147.86;100.00;23852.91;105918;1256;72421;-44
2024/03/22 02:26:46;;;;;;;60.80;22.70;;;;;;;-147.86;100.00;23898.88;105963;1254;61221;-43
2024/03/22 02:29:12;;;;;;;53.80;23.40;;;;;;;-147.86;100.00;23831.89;105957;1253;61260;-44
2024/03/22 02:31:40;;;;;;;62.50;21.30;;;;;;;-147.86;100.00;23804.99;105922;1256;74534;-44
2024/03/22 02:34:07;;;;;;;42.80;20.70;;;;;;;-147.86;100.00;23863.09;105969;1256;64432;-44
2024/03/22 02:36:33;;;;;;;45.50;19.60;;;;;;;-147.86;100.00;24004.50;105908;1257;72629;-45
2024/03/22 02:39:00;;;;;;;46.40;20.20;;;;;;;-147.86;100.00;24115.56;105884;1253;61138;-44
2024/03/22 02:41:27;;;;;;;57.40;21.80;;;;;;;-147.86;100.00;24259.75;105972;1253;61253;-45
2024/03/22 02:43:54;;;;;;;43.20;18.30;;;;;;;-147.86;100.00;24386.39;105859;1256;73638;-45
2024/03/22 02:46:20;;;;;;;35.80;15.70;;;;;;;-147.86;100.00;24415.65;105926;1252;64412;-45
2024/03/22 02:48:47;;;;;;;39.10;18.00;;;;;;;-147.86;100.00;24419.92;105908;1252;72488;-44
2024/03/22 02:51:14;;;;;;;36.70;17.40;;;;;;;-147.86;100.00;24434.35;105925;1256;62870;-44
2024/03/22 02:53:40;;;;;;;37.90;17.30;;;;;;;-147.86;100.00;24358.35;105881;1254;61339;-45
2024/03/22 02:56:09;;;;;;;35.80;16.80;;;;;;;-147.86;100.00;24267.96;105626;1256;74426;-47
2024/03/22 02:58:37;;;;;;;33.40;16.70;;;;;;;-147.86;100.00;24070.94;105634;1256;65635;-45
2024/03/22 03:01:03;;;;;;;43.30;16.50;;;;;;;-147.86;100.00;24203.73;105626;1254;73041;-44
2024/03/22 03:03:30;;;;;;;29.60;15.10;;;;;;;-147.86;100.00;24218.93;105720;1256;61314;-46
2024/03/22 03:05:57;;;;;;;29.40;14.80;;;;;;;-147.86;100.00;24282.41;105671;1254;61359;-48
2024/03/22 03:08:24;;;;;;;29.20;14.40;;;;;;;-147.86;100.00;24255.54;105617;1252;74614;-49
2024/03/22 03:10:51;;;;;;;32.10;15.20;;;;;;;-147.86;100.00;24150.36;105692;1254;65393;-46
2024/03/22 03:13:18;;;;;;;34.80;15.50;;;;;;;-147.86;100.00;24170.62;105725;1254;72621;-46
2024/03/22 03:15:45;;;;;;;36.30;14.90;;;;;;;-147.86;100.00;24077.86;105698;1253;61267;-45
2024/03/22 03:18:12;;;;;;;33.30;14.50;;;;;;;-147.86;100.00;23921.63;105885;1256;61215;-46
2024/03/22 03:20:38;;;;;;;32.50;13.80;;;;;;;-147.86;100.00;23857.34;105880;1254;74381;-47
2024/03/22 03:23:05;;;;;;;34.40;14.60;;;;;;;-147.86;100.00;23710.44;105902;1256;64167;-47
2024/03/22 03:25:32;;;;;;;37.40;15.90;;;;;;;-147.86;100.00;23641.50;105920;1256;72683;-48
2024/03/22 03:27:59;;;;;;;28.10;14.10;;;;;;;-147.86;100.00;23558.13;105917;1254;62166;-44
2024/03/22 03:30:26;;;;;;;32.40;14.50;;;;;;;-147.86;100.00;23487.61;105905;1253;61200;-45
2024/03/22 03:32:53;;;;;;;34.90;15.10;;;;;;;-147.86;100.00;23365.28;105929;1254;74501;-48
2024/03/22 03:35:19;;;;;;;28.90;13.60;;;;;;;-147.86;100.00;23270.21;105911;1256;65513;-45
2024/03/22 03:37:46;;;;;;;35.10;15.10;;;;;;;-147.86;100.00;23153.73;105928;1254;72610;-46
2024/03/22 03:40:13;;;;;;;33.10;16.10;;;;;;;-147.86;100.00;23083.60;105887;1256;61148;-43
2024/03/22 09:26:37;;;;;;;33.90;18.30;;;;;;;-147.86;100.00;-17609.17;103453;1280;616895;-45
2024/03/22 09:29:05;;;;;;;30.30;16.60;;;;;;;-147.86;100.00;-17609.17;105160;1269;62597;-45
2024/03/22 09:31:33;;;;;;;25.60;15.30;;;;;;;-147.86;100.00;-12767.96;105603;1262;61540;-45
2024/03/22 09:34:01;;;;;;;28.30;18.30;;;;;;;-147.86;100.00;2511.07;105686;1260;74491;-46
2024/03/22 09:36:31;;;;;;;34.30;19.70;;;;;;;-147.86;100.00;16288.50;105644;1260;65781;-46
2024/03/22 09:38:58;;;;;;;32.50;20.30;;;;;;;-147.86;100.00;23362.50;105529;1263;285107;-47
2024/03/22 09:41:25;;;;;;;33.70;20.80;;;;;;;-147.86;100.00;20172.15;105682;1260;60854;-46
2024/03/22 09:43:53;;;;;;;37.60;23.10;;;;;;;-147.86;100.00;16736.77;105692;1260;61619;-45
2024/03/22 09:46:22;;;;;;;33.40;21.10;;;;;;;-147.86;100.00;8579.58;105628;1263;74392;-45
2024/03/22 09:48:49;;;;;;;32.20;19.30;;;;;;;-147.86;100.00;13401.65;105687;1259;65748;-46
2024/03/22 09:51:16;;;;;;;32.00;19.10;;;;;;;-147.86;100.00;16984.46;105717;1254;73840;-47
2024/03/22 09:53:50;;;;;;;31.20;19.50;;;;;;;-147.86;100.00;17781.21;105671;1259;60925;-46
2024/03/22 09:56:17;;;;;;;35.70;21.20;;;;;;;-147.86;100.00;3944.09;106003;1251;61394;-46
2024/03/22 09:58:44;;;;;;;31.00;20.40;;;;;;;-147.86;100.00;314.50;106017;1253;75231;-47
2024/03/22 10:01:12;;;;;;;38.30;21.10;;;;;;;-147.86;100.00;-597.70;106077;1254;66742;-47
2024/03/22 10:03:39;;;;;;;32.00;18.50;;;;;;;-147.86;100.00;-1101.21;106021;1252;72778;-47
2024/03/22 10:06:06;;;;;;;29.70;19.40;;;;;;;-147.86;100.00;-6339.34;106051;1254;61604;-47
2024/03/22 10:08:33;;;;;;;43.90;20.80;;;;;;;-147.86;100.00;-13746.28;106028;1255;61937;-46
2024/03/22 10:11:03;;;;;;;33.30;20.00;;;;;;;-147.86;100.00;-10734.43;106029;1252;75212;-45
2024/03/22 10:13:30;;;;;;;37.90;21.10;;;;;;;-147.86;100.00;-11925.97;106093;1254;66688;-46
2024/03/22 10:15:57;;;;;;;30.00;19.10;;;;;;;-147.86;100.00;-13361.93;106052;1252;73893;-48
2024/03/22 10:18:24;;;;;;;34.10;20.90;;;;;;;-147.86;100.00;-16301.47;105994;1254;60684;-46
2024/03/22 10:21:04;;;;;;;34.80;18.60;;;;;;;-147.86;100.00;-17609.17;106120;1251;61416;-45
2024/03/22 10:23:31;;;;;;;33.30;16.60;;;;;;;-147.86;100.00;-17609.17;106050;1255;75208;-47
2024/03/22 10:25:59;;;;;;;29.80;18.00;;;;;;;-147.86;100.00;-17609.17;105947;1254;66844;-46
2024/03/22 10:28:26;;;;;;;36.10;18.50;;;;;;;-147.86;100.00;-17609.17;105956;1257;73783;-44
2024/03/22 10:30:53;;;;;;;32.10;17.90;;;;;;;-147.86;100.00;-17609.17;105993;1257;60732;-46
2024/03/22 10:33:24;;;;;;;35.20;19.30;;;;;;;-147.86;100.00;-17609.17;105942;1257;60422;-47
2024/03/22 10:35:54;;;;;;;30.20;17.20;;;;;;;-147.86;100.00;-17609.17;105966;1256;75168;-47
2024/03/22 10:38:21;;;;;;;35.40;16.90;;;;;;;-147.86;100.00;-17609.17;105970;1257;66605;-45
2024/03/22 10:40:48;;;;;;;25.10;16.10;;;;;;;-147.86;100.00;-17609.17;105936;1254;72717;-49
2024/03/22 10:43:16;;;;;;;24.10;16.10;;;;;;;-147.86;100.00;-17609.17;105962;1257;60398;-46
2024/03/22 10:45:43;;;;;;;23.70;15.50;;;;;;;-147.86;100.00;-17609.17;105967;1255;60480;-48
2024/03/22 10:48:11;;;;;;;20.30;13.50;;;;;;;-147.86;100.00;-16571.32;105742;1259;74146;-47
2024/03/22 10:50:39;;;;;;;27.80;14.50;;;;;;;-147.86;100.00;-9752.89;105951;1257;66639;-48
2024/03/22 10:53:07;;;;;;;24.40;16.10;;;;;;;-147.86;99.63;3519.92;105967;1257;74121;-50
2024/03/22 10:55:38;;;;;;;29.50;16.40;;;;;;;-147.86;100.00;6348.53;106017;1254;60533;-46
2024/03/22 10:58:05;;;;;;;23.50;14.90;;;;;;;-147.86;99.94;10273.09;105988;1257;60377;-46
2024/03/22 11:00:33;;;;;;;25.40;13.70;;;;;;;-147.86;98.31;17437.89;105982;1253;74921;-45
2024/03/22 11:03:04;;;;;;;20.60;14.40;;;;;;;-147.86;97.33;26609.41;105950;1255;64712;-47
2024/03/22 11:05:31;;;;;;;22.50;14.40;;;;;;;-147.86;97.05;31608.12;105957;1254;71738;-47
2024/03/22 11:08:01;;;;;;;24.00;14.30;;;;;;;-147.86;96.70;34277.28;105978;1257;60437;-47
2024/03/22 11:10:30;;;;;;;23.80;14.20;;;;;;;-147.86;95.09;39975.99;105936;1254;61583;-47
2024/03/22 11:13:04;;;;;;;27.50;14.60;;;;;;;-147.86;92.62;43459.71;105966;1255;72883;-46
2024/03/22 11:15:32;;;;;;;25.80;16.00;;;;;;;-147.86;91.47;46206.84;106034;1257;65718;-46
2024/03/22 11:18:02;;;;;;;27.10;12.80;;;;;;;-147.86;91.51;46911.88;106014;1254;72881;-47
2024/03/22 11:20:30;;;;;;;20.50;12.70;;;;;;;-147.86;89.09;47846.38;105916;1257;60913;-44
2024/03/22 11:22:57;;;;;;;21.60;12.50;;;;;;;-147.86;85.64;48612.50;105730;1257;60508;-47
2024/03/22 11:25:24;;;;;;;21.10;14.20;;;;;;;-147.86;83.40;49260.71;105910;1255;73944;-45
2024/03/22 11:27:51;;;;;;;22.90;12.70;;;;;;;-147.86;83.04;49627.80;105995;1256;66073;-48
2024/03/22 11:30:18;;;;;;;27.90;14.50;;;;;;;-147.86;85.48;49752.93;105951;1257;73153;-49
2024/03/22 11:32:45;;;;;;;19.90;12.00;;;;;;;-147.86;83.23;49854.13;105958;1257;60399;-46
2024/03/22 11:35:12;;;;;;;19.90;11.20;;;;;;;-147.86;82.06;50036.52;105738;1255;60450;-51
2024/03/22 11:37:40;;;;;;;21.00;13.10;;;;;;;-147.86;82.43;50131.83;105992;1254;74993;-48
2024/03/22 11:40:12;;;;;;;22.80;12.70;;;;;;;-147.86;82.80;50211.46;106006;1253;64717;-49
2024/03/22 11:42:39;;;;;;;24.10;11.70;;;;;;;-147.86;82.72;50259.32;105977;1264;74015;-48
2024/03/22 11:45:08;;;;;;;19.20;11.50;;;;;;;-147.86;76.08;50346.41;105957;1252;60408;-47
2024/03/22 11:47:35;;;;;;;16.30;10.60;;;;;;;-147.86;74.43;50462.52;105974;1254;60586;-46
2024/03/22 11:50:02;;;;;;;14.70;11.20;;;;;;;-147.86;76.18;50491.95;105904;1257;75051;-48
2024/03/22 11:52:29;;;;;;;17.40;11.20;;;;;;;-147.86;75.85;50531.18;105952;1256;65210;-45
2024/03/22 11:54:57;;;;;;;24.90;13.70;;;;;;;-147.86;77.30;50504.11;105960;1256;72930;-51
2024/03/22 11:57:25;;;;;;;17.40;11.50;;;;;;;-147.86;82.32;50534.71;105954;1254;60427;-45
2024/03/22 11:59:52;;;;;;;17.30;10.70;;;;;;;-147.86;82.89;50535.49;105922;1252;61712;-47
2024/03/22 12:02:41;;;;;;;15.80;10.60;;;;;;;-147.86;81.63;50580.22;105719;1259;75033;-47
2024/03/22 12:05:12;;;;;;;16.80;10.60;;;;;;;-147.86;79.92;50617.09;105968;1257;66056;-48
2024/03/22 12:07:40;;;;;;;16.80;11.60;;;;;;;-147.86;79.95;50647.70;105977;1256;72946;-49
2024/03/22 12:10:08;;;;;;;16.50;11.60;;;;;;;-147.86;77.71;50679.87;105937;1257;60360;-47
2024/03/22 12:12:36;;;;;;;18.80;11.30;;;;;;;-147.86;75.72;50688.89;105757;1260;60479;-49
2024/03/22 12:15:04;;;;;;;15.20;11.00;;;;;;;-147.86;75.07;50726.16;105975;1257;74090;-45
2024/03/22 12:17:31;;;;;;;16.70;10.70;;;;;;;-147.86;76.74;50793.64;105950;1254;66965;-46
2024/03/22 12:19:59;;;;;;;15.60;11.00;;;;;;;-147.86;74.00;50830.13;105912;1257;74220;-46
2024/03/22 12:22:26;;;;;;;40.20;22.60;;;;;;;-147.86;70.39;50890.94;105949;1256;61202;-47
2024/03/22 12:24:53;;;;;;;18.10;11.50;;;;;;;-147.86;70.45;50970.19;105966;1254;61681;-49
2024/03/22 12:27:20;;;;;;;19.50;10.90;;;;;;;-147.86;71.35;50965.48;105991;1257;74964;-46
2024/03/22 12:29:49;;;;;;;23.60;10.60;;;;;;;-147.86;71.05;50987.85;105988;1256;65947;-48
2024/03/22 12:32:16;;;;;;;20.20;13.40;;;;;;;-147.86;71.42;50991.77;105985;1257;72838;-47
2024/03/22 12:34:43;;;;;;;23.00;12.80;;;;;;;-147.86;73.47;51008.64;105725;1259;60845;-47
2024/03/22 12:37:10;;;;;;;20.30;15.00;;;;;;;-147.86;72.65;51016.49;105958;1254;61461;-48
2024/03/22 12:39:37;;;;;;;25.20;15.20;;;;;;;-147.86;74.46;51030.61;105995;1257;75210;-49
2024/03/22 12:42:05;;;;;;;18.60;13.80;;;;;;;-147.86;76.34;51043.56;105964;1258;67034;-45
2024/03/22 12:44:33;;;;;;;20.70;14.80;;;;;;;-147.86;71.50;51010.60;105990;1257;71541;-48
2024/03/22 12:47:00;;;;;;;20.50;14.90;;;;;;;-147.86;72.79;50907.02;105964;1258;60354;-46
2024/03/22 12:49:27;;;;;;;20.70;14.30;;;;;;;-147.86;78.40;50779.52;105969;1254;61350;-48
2024/03/22 12:51:56;;;;;;;20.00;13.40;;;;;;;-147.86;81.97;50772.06;105959;1255;74693;-47
2024/03/22 12:54:25;;;;;;;25.00;12.70;;;;;;;-147.86;83.50;50821.49;105953;1257;66104;-46
2024/03/22 12:56:52;;;;;;;17.60;11.70;;;;;;;-147.86;80.54;50839.93;105936;1255;72807;-47
2024/03/22 12:59:19;;;;;;;20.10;12.00;;;;;;;-147.86;79.82;50784.23;105969;1256;62098;-47
2024/03/22 13:01:46;;;;;;;23.10;13.10;;;;;;;-147.86;81.73;50766.96;106022;1254;61789;-45
2024/03/22 13:04:14;;;;;;;25.50;15.50;;;;;;;-147.86;83.91;50767.74;105963;1257;75011;-47
2024/03/22 13:06:41;;;;;;;23.20;15.30;;;;;;;-147.86;84.24;50752.05;106021;1256;66077;-50
2024/03/22 13:09:15;;;;;;;23.40;15.00;;;;;;;-147.86;87.40;50732.82;105940;1257;71687;-46
2024/03/22 13:11:42;;;;;;;21.10;14.10;;;;;;;-147.86;88.51;50724.59;105943;1255;61118;-49
2024/03/22 13:14:09;;;;;;;23.90;13.50;;;;;;;-147.86;88.23;50689.28;105930;1257;61779;-46
2024/03/22 13:16:36;;;;;;;22.40;13.30;;;;;;;-147.86;90.93;50670.05;105979;1257;75513;-46
2024/03/22 13:19:03;;;;;;;22.20;13.50;;;;;;;-147.86;90.28;50666.13;105935;1255;65525;-48
2024/03/22 13:21:31;;;;;;;21.60;14.40;;;;;;;-147.86;90.71;50637.10;105937;1257;73859;-48
2024/03/22 13:23:58;;;;;;;23.60;14.00;;;;;;;-147.86;92.16;50649.65;105956;1255;61125;-49
2024/03/22 13:26:25;;;;;;;21.00;12.50;;;;;;;-147.86;92.00;50673.59;105987;1251;61328;-47
2024/03/22 13:28:52;;;;;;;18.40;12.30;;;;;;;-147.86;91.42;50664.56;105974;1254;74200;-46
2024/03/22 13:31:19;;;;;;;22.80;12.90;;;;;;;-147.86;91.48;50650.05;105943;1256;67009;-48
2024/03/22 13:33:47;;;;;;;15.90;12.10;;;;;;;-147.86;92.18;50684.18;105995;1255;74038;-46
2024/03/22 13:36:14;;;;;;;18.20;12.70;;;;;;;-147.86;92.11;50671.63;105934;1256;61134;-46
2024/03/22 13:38:41;;;;;;;26.20;12.50;;;;;;;-147.86;91.00;50663.39;105953;1256;61312;-49
2024/03/22 13:41:07;;;;;;;19.10;12.00;;;;;;;-147.86;91.46;50626.51;105941;1254;76037;-49
2024/03/22 13:43:37;;;;;;;19.50;12.50;;;;;;;-147.86;93.01;50646.12;105987;1257;66111;-47
2024/03/22 13:46:04;;;;;;;20.50;12.90;;;;;;;-147.86;92.09;50608.07;105982;1255;73981;-47
2024/03/22 13:48:31;;;;;;;18.20;12.60;;;;;;;-147.86;92.27;50597.87;106008;1256;61225;-47
2024/03/22 13:50:58;;;;;;;15.70;10.60;;;;;;;-147.86;91.18;50576.68;105954;1252;61476;-46
2024/03/22 13:53:27;;;;;;;19.00;11.40;;;;;;;-147.86;90.94;50550.40;105956;1254;75037;-47
2024/03/22 13:55:54;;;;;;;21.30;11.90;;;;;;;-147.86;91.25;50544.52;105953;1257;66029;-48
2024/03/22 13:58:21;;;;;;;18.10;12.10;;;;;;;-147.86;90.00;50548.05;105940;1256;73898;-49
2024/03/22 14:00:48;;;;;;;17.90;11.70;;;;;;;-147.86;89.96;50533.93;106000;1257;61150;-47
2024/03/22 14:03:15;;;;;;;18.40;10.70;;;;;;;-147.86;88.82;50564.52;105989;1255;61434;-47
2024/03/22 14:05:42;;;;;;;15.60;11.20;;;;;;;-147.86;86.46;50556.68;105995;1253;75895;-48
2024/03/22 14:08:09;;;;;;;18.40;11.80;;;;;;;-147.86;85.51;50562.96;105956;1255;65971;-47
2024/03/22 14:10:37;;;;;;;18.00;11.50;;;;;;;-147.86;85.15;50575.90;105917;1254;73965;-46
2024/03/22 14:13:07;;;;;;;18.30;11.10;;;;;;;-147.86;84.38;50576.69;105925;1255;61129;-48
2024/03/22 14:15:35;;;;;;;20.10;11.60;;;;;;;-147.86;83.94;50558.64;105958;1254;61395;-47
2024/03/22 14:18:05;;;;;;;14.80;11.10;;;;;;;-147.86;84.92;50529.22;105988;1257;75932;-47
2024/03/22 14:20:32;;;;;;;15.10;10.20;;;;;;;-147.86;86.79;50520.20;105964;1254;64351;-48
2024/03/22 14:22:59;;;;;;;15.50;10.20;;;;;;;-147.86;88.77;50568.84;105948;1256;72928;-50
2024/03/22 14:25:27;;;;;;;21.00;10.90;;;;;;;-147.86;85.12;50593.16;105955;1256;61220;-46
2024/03/22 14:27:54;;;;;;;16.60;10.90;;;;;;;-147.86;84.06;50610.03;105917;1252;61464;-50
2024/03/22 14:30:22;;;;;;;16.30;11.30;;;;;;;-147.86;84.09;50615.13;105966;1257;75195;-48
2024/03/22 14:32:50;;;;;;;15.80;10.80;;;;;;;-147.86;83.80;50624.55;105953;1255;66308;-49
2024/03/22 14:35:17;;;;;;;19.10;10.90;;;;;;;-147.86;84.13;50653.97;105952;1256;73333;-45
2024/03/22 14:37:44;;;;;;;15.80;10.20;;;;;;;-147.86;83.28;50672.80;105957;1255;61142;-48
2024/03/22 14:40:11;;;;;;;21.30;11.50;;;;;;;-147.86;81.31;50683.00;105949;1253;61659;-49
2024/03/22 14:42:38;;;;;;;12.80;9.40;;;;;;;-147.86;80.33;50673.98;105951;1252;74680;-48
2024/03/22 14:45:08;;;;;;;18.30;9.70;;;;;;;-147.86;79.91;50632.00;105896;1257;66980;-46
2024/03/22 14:47:35;;;;;;;14.40;9.50;;;;;;;-147.86;81.49;50634.36;105948;1254;74071;-50
2024/03/22 14:50:03;;;;;;;24.20;15.10;;;;;;;-147.86;77.42;50618.66;105964;1255;61997;-48
2024/03/22 14:52:30;;;;;;;18.80;11.50;;;;;;;-147.86;80.05;50528.04;105978;1252;61846;-47
2024/03/22 14:54:57;;;;;;;17.80;11.10;;;;;;;-147.86;82.34;50485.28;105954;1254;75896;-46
2024/03/22 14:57:24;;;;;;;15.40;10.20;;;;;;;-147.86;84.33;50469.59;105731;1254;66790;-47
2024/03/22 14:59:52;;;;;;;22.10;11.10;;;;;;;-147.86;85.56;50480.18;105950;1254;73786;-47
2024/03/22 15:02:20;;;;;;;19.10;11.10;;;;;;;-147.86;86.08;50497.44;105951;1257;61109;-45
2024/03/22 15:04:47;;;;;;;14.80;10.50;;;;;;;-147.86;86.19;50508.82;105942;1254;61253;-48
2024/03/22 15:07:15;;;;;;;17.60;11.30;;;;;;;-147.86;87.07;50487.63;105971;1254;75960;-50
2024/03/22 15:09:42;;;;;;;18.70;11.60;;;;;;;-147.86;88.20;50437.03;105939;1254;66885;-47
2024/03/22 15:12:09;;;;;;;15.80;11.00;;;;;;;-147.86;90.03;50363.27;105919;1254;74066;-48
2024/03/22 15:14:36;;;;;;;18.60;11.10;;;;;;;-147.86;92.22;50358.57;105897;1257;61173;-46
2024/03/22 15:17:04;;;;;;;21.60;11.40;;;;;;;-147.86;94.26;50418.59;105924;1254;61791;-48
2024/03/22 15:19:31;;;;;;;20.60;12.00;;;;;;;-147.86;96.14;50497.05;106002;1255;75926;-47
2024/03/22 15:21:58;;;;;;;18.20;10.70;;;;;;;-147.86;97.93;50399.37;105973;1256;66688;-47
2024/03/22 15:24:26;;;;;;;20.50;10.70;;;;;;;-147.86;99.77;49565.86;105937;1255;73991;-48
2024/03/22 15:26:54;;;;;;;20.00;11.90;;;;;;;-147.86;100.00;46480.23;105948;1256;61189;-47
2024/03/22 15:29:21;;;;;;;21.30;12.40;;;;;;;-147.86;100.00;37414.74;105952;1254;61369;-46
2024/03/22 15:31:48;;;;;;;21.80;11.60;;;;;;;-147.86;100.00;20277.43;105933;1256;75815;-46
2024/03/22 15:34:15;;;;;;;18.70;11.60;;;;;;;-147.86;100.00;8187.15;105962;1257;65919;-46
2024/03/22 15:36:42;;;;;;;21.70;11.80;;;;;;;-147.86;100.00;-2181.20;105907;1254;73818;-47
2024/03/22 15:39:09;;;;;;;18.10;10.50;;;;;;;-147.86;100.00;-9111.20;105914;1252;62311;-50
2024/03/22 15:41:37;;;;;;;17.50;11.30;;;;;;;-147.86;100.00;-14053.27;106025;1253;61669;-49
2024/03/22 15:44:04;;;;;;;24.60;12.50;;;;;;;-147.86;100.00;-16818.14;106058;1254;73824;-49
2024/03/22 15:46:31;;;;;;;23.10;13.00;;;;;;;-147.86;100.00;-17608.59;105962;1257;64437;-48
2024/03/22 15:48:59;;;;;;;19.40;12.10;;;;;;;-147.86;100.00;-17609.17;105929;1252;72596;-49
2024/03/22 15:51:26;;;;;;;19.80;12.40;;;;;;;-147.86;100.00;-17609.17;106000;1257;61221;-46
2024/03/22 15:53:53;;;;;;;19.40;11.10;;;;;;;-147.86;100.00;-17609.17;106006;1254;61693;-45
2024/03/22 15:56:20;;;;;;;20.90;12.80;;;;;;;-147.86;100.00;-17609.17;105856;1256;76071;-47
2024/03/22 15:58:48;;;;;;;21.00;11.80;;;;;;;-147.86;100.00;-17609.17;105955;1256;66069;-50
2024/03/22 16:01:15;;;;;;;41.10;23.90;;;;;;;-147.86;100.00;-17609.17;106001;1254;72816;-50
2024/03/22 16:03:42;;;;;;;33.30;20.40;;;;;;;-147.86;100.00;-17609.17;105959;1257;61255;-47
2024/03/22 16:06:09;;;;;;;42.20;24.60;;;;;;;-147.86;100.00;-17609.17;105836;1253;61453;-50
2024/03/22 16:08:36;;;;;;;33.90;21.70;;;;;;;-147.86;100.00;-17609.17;105741;1257;76297;-50
2024/03/22 16:11:03;;;;;;;46.10;23.70;;;;;;;-147.86;100.00;-17609.17;105757;1254;67215;-48
2024/03/22 16:13:31;;;;;;;40.80;22.50;;;;;;;-147.86;100.00;-14579.16;106003;1254;73636;-49
2024/03/22 16:15:58;;;;;;;33.80;17.50;;;;;;;-147.86;100.00;-967.36;105920;1254;62300;-51
2024/03/22 16:18:25;;;;;;;29.30;16.80;;;;;;;-147.86;100.00;15284.54;105983;1254;61497;-48
2024/03/22 16:20:52;;;;;;;32.00;15.90;;;;;;;-147.86;100.00;30181.51;105937;1256;75842;-46
2024/03/22 16:23:18;;;;;;;28.30;15.60;;;;;;;-147.86;100.00;41254.16;105967;1256;65902;-46
2024/03/22 16:25:45;;;;;;;36.00;16.10;;;;;;;-147.86;100.00;48497.46;105957;1254;74040;-48
2024/03/22 16:28:12;;;;;;;26.60;15.40;;;;;;;-147.86;100.00;52837.84;105926;1251;62482;-46
2024/03/22 16:30:39;;;;;;;39.90;15.90;;;;;;;-147.86;100.00;53962.18;105959;1253;61478;-48
2024/03/22 16:33:06;;;;;;;24.00;14.30;;;;;;;-147.86;100.00;53536.62;105956;1253;75836;-47
2024/03/22 16:35:33;;;;;;;29.10;15.70;;;;;;;-147.86;100.00;50774.56;105956;1256;65157;-46